sensor_id;sensor_type;location;lat;lon;timestamp;P1;durP1;ratioP1;P2;durP2;ratioP2
9005;SDS011;62284;50.702;7.140;2022-09-30T00:01:18;5.38;;;3.95;;
9005;SDS011;62284;50.702;7.140;2022-09-30T00:03:44;4.03;;;3.60;;
9005;SDS011;62284;50.702;7.140;2022-09-30T00:06:13;3.97;;;3.67;;
9005;SDS011;62284;50.702;7.140;2022-09-30T00:08:42;4.03;;;3.72;;
9005;SDS011;62284;50.702;7.140;2022-09-30T00:11:10;4.10;;;3.70;;
9005;SDS011;62284;50.702;7.140;2022-09-30T00:13:40;3.58;;;3.30;;
9005;SDS011;62284;50.702;7.140;2022-09-30T00:16:08;4.20;;;3.85;;
9005;SDS011;62284;50.702;7.140;2022-09-30T00:18:36;3.60;;;3.30;;
9005;SDS011;62284;50.702;7.140;2022-09-30T00:21:04;6.07;;;3.70;;
9005;SDS011;62284;50.702;7.140;2022-09-30T00:23:31;4.45;;;4.03;;
9005;SDS011;62284;50.702;7.140;2022-09-30T00:26:00;3.95;;;3.65;;
9005;SDS011;62284;50.702;7.140;2022-09-30T00:28:28;3.92;;;3.63;;
9005;SDS011;62284;50.702;7.140;2022-09-30T00:30:57;3.90;;;3.60;;
9005;SDS011;62284;50.702;7.140;2022-09-30T00:33:24;3.90;;;3.60;;
9005;SDS011;62284;50.702;7.140;2022-09-30T00:35:51;3.90;;;3.60;;
9005;SDS011;62284;50.702;7.140;2022-09-30T00:38:17;3.90;;;3.60;;
9005;SDS011;62284;50.702;7.140;2022-09-30T00:40:45;3.80;;;3.50;;
9005;SDS011;62284;50.702;7.140;2022-09-30T00:43:14;3.67;;;3.38;;
9005;SDS011;62284;50.702;7.140;2022-09-30T00:45:43;3.95;;;3.50;;
9005;SDS011;62284;50.702;7.140;2022-09-30T00:48:15;3.90;;;3.60;;
9005;SDS011;62284;50.702;7.140;2022-09-30T00:50:45;3.97;;;3.63;;
9005;SDS011;62284;50.702;7.140;2022-09-30T00:53:20;4.38;;;3.67;;
9005;SDS011;62284;50.702;7.140;2022-09-30T00:55:50;4.53;;;3.75;;
9005;SDS011;62284;50.702;7.140;2022-09-30T00:58:24;4.22;;;3.92;;
9005;SDS011;62284;50.702;7.140;2022-09-30T01:00:53;3.72;;;3.42;;
9005;SDS011;62284;50.702;7.140;2022-09-30T01:03:22;3.85;;;3.53;;
9005;SDS011;62284;50.702;7.140;2022-09-30T01:05:49;3.83;;;3.50;;
9005;SDS011;62284;50.702;7.140;2022-09-30T01:08:17;3.88;;;3.47;;
9005;SDS011;62284;50.702;7.140;2022-09-30T01:10:45;3.63;;;3.38;;
9005;SDS011;62284;50.702;7.140;2022-09-30T01:13:13;3.80;;;3.50;;
9005;SDS011;62284;50.702;7.140;2022-09-30T01:15:50;5.00;;;3.92;;
9005;SDS011;62284;50.702;7.140;2022-09-30T01:18:24;4.20;;;3.80;;
9005;SDS011;62284;50.702;7.140;2022-09-30T01:23:57;4.30;;;3.80;;
9005;SDS011;62284;50.702;7.140;2022-09-30T01:27:01;4.00;;;3.70;;
9005;SDS011;62284;50.702;7.140;2022-09-30T01:29:45;4.47;;;4.18;;
9005;SDS011;62284;50.702;7.140;2022-09-30T01:32:39;4.40;;;4.00;;
9005;SDS011;62284;50.702;7.140;2022-09-30T01:35:24;4.40;;;4.10;;
9005;SDS011;62284;50.702;7.140;2022-09-30T01:38:10;4.30;;;3.83;;
9005;SDS011;62284;50.702;7.140;2022-09-30T01:40:43;4.43;;;4.03;;
9005;SDS011;62284;50.702;7.140;2022-09-30T01:43:14;5.32;;;4.82;;
9005;SDS011;62284;50.702;7.140;2022-09-30T01:45:51;5.05;;;4.55;;
9005;SDS011;62284;50.702;7.140;2022-09-30T01:48:26;4.50;;;4.20;;
9005;SDS011;62284;50.702;7.140;2022-09-30T01:51:01;5.93;;;5.30;;
9005;SDS011;62284;50.702;7.140;2022-09-30T01:53:34;6.03;;;5.53;;
9005;SDS011;62284;50.702;7.140;2022-09-30T01:56:07;5.22;;;4.82;;
9005;SDS011;62284;50.702;7.140;2022-09-30T01:58:43;6.43;;;5.93;;
9005;SDS011;62284;50.702;7.140;2022-09-30T02:01:17;6.22;;;5.63;;
9005;SDS011;62284;50.702;7.140;2022-09-30T02:03:50;6.78;;;5.82;;
9005;SDS011;62284;50.702;7.140;2022-09-30T02:06:21;6.05;;;5.55;;
9005;SDS011;62284;50.702;7.140;2022-09-30T02:08:53;6.35;;;5.85;;
9005;SDS011;62284;50.702;7.140;2022-09-30T02:11:25;7.45;;;6.75;;
9005;SDS011;62284;50.702;7.140;2022-09-30T02:13:55;7.05;;;6.45;;
9005;SDS011;62284;50.702;7.140;2022-09-30T02:16:28;7.97;;;7.28;;
9005;SDS011;62284;50.702;7.140;2022-09-30T02:19:07;7.43;;;6.82;;
9005;SDS011;62284;50.702;7.140;2022-09-30T02:21:39;7.97;;;7.25;;
9005;SDS011;62284;50.702;7.140;2022-09-30T02:24:09;7.03;;;6.43;;
9005;SDS011;62284;50.702;7.140;2022-09-30T02:26:40;7.20;;;6.70;;
9005;SDS011;62284;50.702;7.140;2022-09-30T02:29:09;6.95;;;6.22;;
9005;SDS011;62284;50.702;7.140;2022-09-30T02:31:40;7.03;;;6.43;;
9005;SDS011;62284;50.702;7.140;2022-09-30T02:34:11;6.80;;;6.20;;
9005;SDS011;62284;50.702;7.140;2022-09-30T02:36:42;6.93;;;6.43;;
9005;SDS011;62284;50.702;7.140;2022-09-30T02:39:14;6.85;;;6.35;;
9005;SDS011;62284;50.702;7.140;2022-09-30T02:41:48;6.80;;;6.13;;
9005;SDS011;62284;50.702;7.140;2022-09-30T02:44:19;7.20;;;6.60;;
9005;SDS011;62284;50.702;7.140;2022-09-30T02:46:50;7.45;;;6.85;;
9005;SDS011;62284;50.702;7.140;2022-09-30T02:49:25;7.75;;;7.10;;
9005;SDS011;62284;50.702;7.140;2022-09-30T02:52:01;7.20;;;6.60;;
9005;SDS011;62284;50.702;7.140;2022-09-30T02:54:38;6.63;;;6.13;;
9005;SDS011;62284;50.702;7.140;2022-09-30T02:57:13;6.90;;;6.30;;
9005;SDS011;62284;50.702;7.140;2022-09-30T02:59:47;6.28;;;5.78;;
9005;SDS011;62284;50.702;7.140;2022-09-30T03:02:17;6.43;;;5.93;;
9005;SDS011;62284;50.702;7.140;2022-09-30T03:04:47;6.68;;;6.18;;
9005;SDS011;62284;50.702;7.140;2022-09-30T03:07:15;6.38;;;5.78;;
9005;SDS011;62284;50.702;7.140;2022-09-30T03:09:42;6.35;;;5.80;;
9005;SDS011;62284;50.702;7.140;2022-09-30T03:12:11;7.00;;;6.43;;
9005;SDS011;62284;50.702;7.140;2022-09-30T03:14:51;6.63;;;6.03;;
9005;SDS011;62284;50.702;7.140;2022-09-30T03:17:36;6.63;;;6.13;;
9005;SDS011;62284;50.702;7.140;2022-09-30T03:20:19;6.13;;;5.63;;
9005;SDS011;62284;50.702;7.140;2022-09-30T03:23:04;6.32;;;5.72;;
9005;SDS011;62284;50.702;7.140;2022-09-30T03:25:50;7.25;;;6.53;;
9005;SDS011;62284;50.702;7.140;2022-09-30T03:28:26;6.82;;;6.22;;
9005;SDS011;62284;50.702;7.140;2022-09-30T03:30:58;6.20;;;5.60;;
9005;SDS011;62284;50.702;7.140;2022-09-30T03:33:32;5.88;;;5.47;;
9005;SDS011;62284;50.702;7.140;2022-09-30T03:36:10;6.57;;;6.00;;
9005;SDS011;62284;50.702;7.140;2022-09-30T03:38:46;6.10;;;5.60;;
9005;SDS011;62284;50.702;7.140;2022-09-30T03:41:19;6.25;;;5.75;;
9005;SDS011;62284;50.702;7.140;2022-09-30T03:43:54;6.00;;;5.50;;
9005;SDS011;62284;50.702;7.140;2022-09-30T03:46:29;7.68;;;6.97;;
9005;SDS011;62284;50.702;7.140;2022-09-30T03:49:00;6.45;;;5.85;;
9005;SDS011;62284;50.702;7.140;2022-09-30T03:51:31;7.55;;;6.93;;
9005;SDS011;62284;50.702;7.140;2022-09-30T03:54:03;7.07;;;6.47;;
9005;SDS011;62284;50.702;7.140;2022-09-30T03:56:34;7.85;;;7.25;;
9005;SDS011;62284;50.702;7.140;2022-09-30T03:59:07;7.10;;;6.50;;
9005;SDS011;62284;50.702;7.140;2022-09-30T04:01:35;7.88;;;7.18;;
9005;SDS011;62284;50.702;7.140;2022-09-30T04:04:03;8.25;;;7.15;;
9005;SDS011;62284;50.702;7.140;2022-09-30T04:06:31;7.40;;;6.90;;
9005;SDS011;62284;50.702;7.140;2022-09-30T04:08:58;7.30;;;6.60;;
9005;SDS011;62284;50.702;7.140;2022-09-30T04:11:25;8.10;;;7.40;;
9005;SDS011;62284;50.702;7.140;2022-09-30T04:13:52;6.90;;;6.30;;
9005;SDS011;62284;50.702;7.140;2022-09-30T04:16:19;8.02;;;7.32;;
9005;SDS011;62284;50.702;7.140;2022-09-30T04:18:46;7.45;;;6.75;;
9005;SDS011;62284;50.702;7.140;2022-09-30T04:21:13;7.50;;;6.88;;
9005;SDS011;62284;50.702;7.140;2022-09-30T04:23:42;7.13;;;6.63;;
9005;SDS011;62284;50.702;7.140;2022-09-30T04:26:10;7.30;;;6.80;;
9005;SDS011;62284;50.702;7.140;2022-09-30T04:28:38;7.38;;;6.78;;
9005;SDS011;62284;50.702;7.140;2022-09-30T04:31:05;8.10;;;6.75;;
9005;SDS011;62284;50.702;7.140;2022-09-30T04:33:33;6.70;;;6.20;;
9005;SDS011;62284;50.702;7.140;2022-09-30T04:36:00;6.78;;;6.18;;
9005;SDS011;62284;50.702;7.140;2022-09-30T04:38:27;6.00;;;5.50;;
9005;SDS011;62284;50.702;7.140;2022-09-30T04:40:56;6.72;;;6.15;;
9005;SDS011;62284;50.702;7.140;2022-09-30T04:43:26;5.93;;;5.47;;
9005;SDS011;62284;50.702;7.140;2022-09-30T04:45:54;6.32;;;5.93;;
9005;SDS011;62284;50.702;7.140;2022-09-30T04:48:22;6.80;;;6.20;;
9005;SDS011;62284;50.702;7.140;2022-09-30T04:50:49;8.40;;;7.22;;
9005;SDS011;62284;50.702;7.140;2022-09-30T04:53:16;7.10;;;6.60;;
9005;SDS011;62284;50.702;7.140;2022-09-30T04:55:44;7.13;;;6.53;;
9005;SDS011;62284;50.702;7.140;2022-09-30T04:58:12;11.23;;;7.85;;
9005;SDS011;62284;50.702;7.140;2022-09-30T05:00:41;8.18;;;7.47;;
9005;SDS011;62284;50.702;7.140;2022-09-30T05:03:07;8.00;;;7.30;;
9005;SDS011;62284;50.702;7.140;2022-09-30T05:05:35;7.80;;;7.07;;
9005;SDS011;62284;50.702;7.140;2022-09-30T05:08:02;8.00;;;7.40;;
9005;SDS011;62284;50.702;7.140;2022-09-30T05:10:29;7.93;;;7.28;;
9005;SDS011;62284;50.702;7.140;2022-09-30T05:12:56;7.68;;;6.90;;
9005;SDS011;62284;50.702;7.140;2022-09-30T05:15:24;7.57;;;6.90;;
9005;SDS011;62284;50.702;7.140;2022-09-30T05:17:52;8.55;;;7.85;;
9005;SDS011;62284;50.702;7.140;2022-09-30T05:20:19;10.45;;;7.35;;
9005;SDS011;62284;50.702;7.140;2022-09-30T05:22:46;8.73;;;8.02;;
9005;SDS011;62284;50.702;7.140;2022-09-30T05:25:13;8.90;;;8.20;;
9005;SDS011;62284;50.702;7.140;2022-09-30T05:27:39;8.90;;;7.95;;
9005;SDS011;62284;50.702;7.140;2022-09-30T05:30:07;40.08;;;11.80;;
9005;SDS011;62284;50.702;7.140;2022-09-30T05:32:36;8.40;;;7.70;;
9005;SDS011;62284;50.702;7.140;2022-09-30T05:35:03;13.98;;;9.20;;
9005;SDS011;62284;50.702;7.140;2022-09-30T05:37:32;8.88;;;8.13;;
9005;SDS011;62284;50.702;7.140;2022-09-30T05:39:59;10.25;;;9.30;;
9005;SDS011;62284;50.702;7.140;2022-09-30T05:42:26;9.57;;;8.82;;
9005;SDS011;62284;50.702;7.140;2022-09-30T05:44:53;8.65;;;7.95;;
9005;SDS011;62284;50.702;7.140;2022-09-30T05:47:20;8.77;;;8.15;;
9005;SDS011;62284;50.702;7.140;2022-09-30T05:49:49;8.55;;;7.95;;
9005;SDS011;62284;50.702;7.140;2022-09-30T05:52:16;9.00;;;8.20;;
9005;SDS011;62284;50.702;7.140;2022-09-30T05:54:43;8.75;;;7.93;;
9005;SDS011;62284;50.702;7.140;2022-09-30T05:57:10;9.18;;;8.45;;
9005;SDS011;62284;50.702;7.140;2022-09-30T05:59:37;9.55;;;8.85;;
9005;SDS011;62284;50.702;7.140;2022-09-30T06:02:04;8.70;;;8.00;;
9005;SDS011;62284;50.702;7.140;2022-09-30T06:04:31;9.15;;;8.45;;
9005;SDS011;62284;50.702;7.140;2022-09-30T06:07:00;8.80;;;8.18;;
9005;SDS011;62284;50.702;7.140;2022-09-30T06:09:26;10.20;;;9.30;;
9005;SDS011;62284;50.702;7.140;2022-09-30T06:11:53;10.77;;;9.98;;
9005;SDS011;62284;50.702;7.140;2022-09-30T06:14:22;10.95;;;10.15;;
9005;SDS011;62284;50.702;7.140;2022-09-30T06:16:49;10.68;;;9.88;;
9005;SDS011;62284;50.702;7.140;2022-09-30T06:19:16;14.15;;;11.48;;
9005;SDS011;62284;50.702;7.140;2022-09-30T06:21:42;11.82;;;10.88;;
9005;SDS011;62284;50.702;7.140;2022-09-30T06:24:11;11.18;;;10.38;;
9005;SDS011;62284;50.702;7.140;2022-09-30T06:26:38;9.93;;;9.13;;
9005;SDS011;62284;50.702;7.140;2022-09-30T06:29:06;12.23;;;11.05;;
9005;SDS011;62284;50.702;7.140;2022-09-30T06:31:33;11.30;;;10.23;;
9005;SDS011;62284;50.702;7.140;2022-09-30T06:34:00;11.73;;;10.70;;
9005;SDS011;62284;50.702;7.140;2022-09-30T06:36:27;11.70;;;10.80;;
9005;SDS011;62284;50.702;7.140;2022-09-30T06:38:54;11.48;;;10.57;;
9005;SDS011;62284;50.702;7.140;2022-09-30T06:41:22;11.70;;;10.73;;
9005;SDS011;62284;50.702;7.140;2022-09-30T06:43:51;10.75;;;9.85;;
9005;SDS011;62284;50.702;7.140;2022-09-30T06:46:18;11.65;;;10.75;;
9005;SDS011;62284;50.702;7.140;2022-09-30T06:48:48;11.40;;;10.55;;
9005;SDS011;62284;50.702;7.140;2022-09-30T06:51:17;13.80;;;12.73;;
9005;SDS011;62284;50.702;7.140;2022-09-30T06:53:44;11.70;;;10.80;;
9005;SDS011;62284;50.702;7.140;2022-09-30T06:56:11;11.55;;;10.65;;
9005;SDS011;62284;50.702;7.140;2022-09-30T06:58:40;11.70;;;10.80;;
9005;SDS011;62284;50.702;7.140;2022-09-30T07:01:09;10.70;;;9.77;;
9005;SDS011;62284;50.702;7.140;2022-09-30T07:03:39;12.18;;;11.10;;
9005;SDS011;62284;50.702;7.140;2022-09-30T07:06:08;11.38;;;10.38;;
9005;SDS011;62284;50.702;7.140;2022-09-30T07:08:36;12.40;;;11.40;;
9005;SDS011;62284;50.702;7.140;2022-09-30T07:11:04;11.40;;;10.50;;
9005;SDS011;62284;50.702;7.140;2022-09-30T07:13:36;11.45;;;10.48;;
9005;SDS011;62284;50.702;7.140;2022-09-30T07:16:05;12.10;;;11.27;;
9005;SDS011;62284;50.702;7.140;2022-09-30T07:18:32;10.75;;;9.95;;
9005;SDS011;62284;50.702;7.140;2022-09-30T07:20:59;11.07;;;10.23;;
9005;SDS011;62284;50.702;7.140;2022-09-30T07:23:26;10.82;;;9.95;;
9005;SDS011;62284;50.702;7.140;2022-09-30T07:25:53;11.13;;;10.23;;
9005;SDS011;62284;50.702;7.140;2022-09-30T07:28:21;12.35;;;11.45;;
9005;SDS011;62284;50.702;7.140;2022-09-30T07:30:51;11.70;;;10.80;;
9005;SDS011;62284;50.702;7.140;2022-09-30T07:33:21;10.88;;;10.07;;
9005;SDS011;62284;50.702;7.140;2022-09-30T07:35:49;11.57;;;10.68;;
9005;SDS011;62284;50.702;7.140;2022-09-30T07:38:18;11.90;;;10.95;;
9005;SDS011;62284;50.702;7.140;2022-09-30T07:40:52;11.18;;;10.35;;
9005;SDS011;62284;50.702;7.140;2022-09-30T07:43:20;11.77;;;10.88;;
9005;SDS011;62284;50.702;7.140;2022-09-30T07:45:47;12.55;;;11.55;;
9005;SDS011;62284;50.702;7.140;2022-09-30T07:48:15;12.35;;;11.45;;
9005;SDS011;62284;50.702;7.140;2022-09-30T07:51:04;11.98;;;11.05;;
9005;SDS011;62284;50.702;7.140;2022-09-30T07:53:31;10.73;;;9.82;;
9005;SDS011;62284;50.702;7.140;2022-09-30T07:56:00;10.82;;;10.02;;
9005;SDS011;62284;50.702;7.140;2022-09-30T07:58:28;10.05;;;9.35;;
9005;SDS011;62284;50.702;7.140;2022-09-30T08:00:55;10.18;;;9.48;;
9005;SDS011;62284;50.702;7.140;2022-09-30T08:03:22;10.23;;;9.45;;
9005;SDS011;62284;50.702;7.140;2022-09-30T08:05:49;9.75;;;9.05;;
9005;SDS011;62284;50.702;7.140;2022-09-30T08:08:17;9.57;;;8.88;;
9005;SDS011;62284;50.702;7.140;2022-09-30T08:10:44;10.52;;;9.73;;
9005;SDS011;62284;50.702;7.140;2022-09-30T08:13:11;10.40;;;9.60;;
9005;SDS011;62284;50.702;7.140;2022-09-30T08:15:38;11.30;;;10.40;;
9005;SDS011;62284;50.702;7.140;2022-09-30T08:18:05;10.90;;;10.00;;
9005;SDS011;62284;50.702;7.140;2022-09-30T08:20:32;11.85;;;10.95;;
9005;SDS011;62284;50.702;7.140;2022-09-30T08:22:59;10.63;;;9.82;;
9005;SDS011;62284;50.702;7.140;2022-09-30T08:25:27;10.48;;;9.57;;
9005;SDS011;62284;50.702;7.140;2022-09-30T08:27:54;10.02;;;9.23;;
9005;SDS011;62284;50.702;7.140;2022-09-30T08:30:21;9.27;;;8.55;;
9005;SDS011;62284;50.702;7.140;2022-09-30T08:32:48;8.75;;;8.15;;
9005;SDS011;62284;50.702;7.140;2022-09-30T08:35:15;9.98;;;9.25;;
9005;SDS011;62284;50.702;7.140;2022-09-30T08:37:42;9.20;;;8.40;;
9005;SDS011;62284;50.702;7.140;2022-09-30T08:40:10;9.70;;;9.00;;
9005;SDS011;62284;50.702;7.140;2022-09-30T08:42:57;9.35;;;8.60;;
9005;SDS011;62284;50.702;7.140;2022-09-30T08:45:35;9.30;;;8.60;;
9005;SDS011;62284;50.702;7.140;2022-09-30T08:48:10;8.70;;;8.10;;
9005;SDS011;62284;50.702;7.140;2022-09-30T08:50:58;9.98;;;9.20;;
9005;SDS011;62284;50.702;7.140;2022-09-30T08:53:32;9.18;;;8.45;;
9005;SDS011;62284;50.702;7.140;2022-09-30T08:56:02;8.20;;;7.60;;
9005;SDS011;62284;50.702;7.140;2022-09-30T08:58:34;7.78;;;7.18;;
9005;SDS011;62284;50.702;7.140;2022-09-30T09:01:04;8.75;;;8.15;;
9005;SDS011;62284;50.702;7.140;2022-09-30T09:03:37;7.13;;;6.63;;
9005;SDS011;62284;50.702;7.140;2022-09-30T09:06:10;6.68;;;6.25;;
9005;SDS011;62284;50.702;7.140;2022-09-30T09:09:04;7.97;;;7.35;;
9005;SDS011;62284;50.702;7.140;2022-09-30T09:11:47;7.03;;;6.43;;
9005;SDS011;62284;50.702;7.140;2022-09-30T09:14:29;6.95;;;6.45;;
9005;SDS011;62284;50.702;7.140;2022-09-30T09:17:09;6.40;;;5.90;;
9005;SDS011;62284;50.702;7.140;2022-09-30T09:19:49;5.88;;;5.38;;
9005;SDS011;62284;50.702;7.140;2022-09-30T09:22:21;6.50;;;5.57;;
9005;SDS011;62284;50.702;7.140;2022-09-30T09:24:51;6.47;;;5.88;;
9005;SDS011;62284;50.702;7.140;2022-09-30T09:27:20;6.70;;;6.20;;
9005;SDS011;62284;50.702;7.140;2022-09-30T09:29:54;6.53;;;6.03;;
9005;SDS011;62284;50.702;7.140;2022-09-30T09:32:30;6.95;;;6.25;;
9005;SDS011;62284;50.702;7.140;2022-09-30T09:34:58;6.63;;;6.13;;
9005;SDS011;62284;50.702;7.140;2022-09-30T09:37:29;6.68;;;6.18;;
9005;SDS011;62284;50.702;7.140;2022-09-30T09:40:21;7.13;;;6.47;;
9005;SDS011;62284;50.702;7.140;2022-09-30T09:43:02;6.20;;;5.80;;
9005;SDS011;62284;50.702;7.140;2022-09-30T09:45:39;6.35;;;5.75;;
9005;SDS011;62284;50.702;7.140;2022-09-30T09:48:13;5.93;;;5.45;;
9005;SDS011;62284;50.702;7.140;2022-09-30T09:50:44;5.80;;;5.32;;
9005;SDS011;62284;50.702;7.140;2022-09-30T09:53:20;5.10;;;4.70;;
9005;SDS011;62284;50.702;7.140;2022-09-30T09:55:53;5.60;;;5.10;;
9005;SDS011;62284;50.702;7.140;2022-09-30T09:58:24;5.15;;;4.75;;
9005;SDS011;62284;50.702;7.140;2022-09-30T10:00:53;5.03;;;4.63;;
9005;SDS011;62284;50.702;7.140;2022-09-30T10:04:05;4.38;;;4.07;;
9005;SDS011;62284;50.702;7.140;2022-09-30T10:06:49;4.03;;;3.72;;
9005;SDS011;62284;50.702;7.140;2022-09-30T10:09:31;4.45;;;4.13;;
9005;SDS011;62284;50.702;7.140;2022-09-30T10:14:57;3.65;;;3.35;;
9005;SDS011;62284;50.702;7.140;2022-09-30T10:17:42;3.92;;;3.63;;
9005;SDS011;62284;50.702;7.140;2022-09-30T10:20:17;4.05;;;3.75;;
9005;SDS011;62284;50.702;7.140;2022-09-30T10:22:50;4.30;;;3.20;;
9005;SDS011;62284;50.702;7.140;2022-09-30T10:25:26;2.88;;;2.67;;
9005;SDS011;62284;50.702;7.140;2022-09-30T10:27:54;3.33;;;2.92;;
9005;SDS011;62284;50.702;7.140;2022-09-30T10:30:29;5.32;;;2.83;;
9005;SDS011;62284;50.702;7.140;2022-09-30T10:33:00;3.00;;;2.70;;
9005;SDS011;62284;50.702;7.140;2022-09-30T10:35:28;3.20;;;2.90;;
9005;SDS011;62284;50.702;7.140;2022-09-30T10:37:57;2.90;;;2.70;;
9005;SDS011;62284;50.702;7.140;2022-09-30T10:40:26;2.72;;;2.53;;
9005;SDS011;62284;50.702;7.140;2022-09-30T10:42:54;3.58;;;3.10;;
9005;SDS011;62284;50.702;7.140;2022-09-30T10:45:23;3.03;;;2.78;;
9005;SDS011;62284;50.702;7.140;2022-09-30T10:47:54;2.65;;;2.30;;
9005;SDS011;62284;50.702;7.140;2022-09-30T10:50:25;2.40;;;2.20;;
9005;SDS011;62284;50.702;7.140;2022-09-30T10:52:53;1.63;;;1.52;;
9005;SDS011;62284;50.702;7.140;2022-09-30T10:55:26;1.83;;;1.70;;
9005;SDS011;62284;50.702;7.140;2022-09-30T10:57:58;1.83;;;1.73;;
9005;SDS011;62284;50.702;7.140;2022-09-30T11:00:45;2.00;;;1.90;;
9005;SDS011;62284;50.702;7.140;2022-09-30T11:03:16;2.33;;;2.05;;
9005;SDS011;62284;50.702;7.140;2022-09-30T11:05:47;2.80;;;2.05;;
9005;SDS011;62284;50.702;7.140;2022-09-30T11:08:17;2.10;;;1.27;;
9005;SDS011;62284;50.702;7.140;2022-09-30T11:10:47;1.42;;;1.40;;
9005;SDS011;62284;50.702;7.140;2022-09-30T11:13:22;3.75;;;1.95;;
9005;SDS011;62284;50.702;7.140;2022-09-30T11:15:55;1.60;;;1.50;;
9005;SDS011;62284;50.702;7.140;2022-09-30T11:18:30;2.45;;;1.52;;
9005;SDS011;62284;50.702;7.140;2022-09-30T11:21:05;1.65;;;1.55;;
9005;SDS011;62284;50.702;7.140;2022-09-30T11:23:39;2.00;;;1.85;;
9005;SDS011;62284;50.702;7.140;2022-09-30T11:26:11;1.50;;;1.40;;
9005;SDS011;62284;50.702;7.140;2022-09-30T11:28:48;2.05;;;1.20;;
9005;SDS011;62284;50.702;7.140;2022-09-30T11:31:28;3.35;;;1.98;;
9005;SDS011;62284;50.702;7.140;2022-09-30T11:34:09;2.60;;;1.50;;
9005;SDS011;62284;50.702;7.140;2022-09-30T11:36:52;1.08;;;1.05;;
9005;SDS011;62284;50.702;7.140;2022-09-30T11:39:37;1.10;;;1.00;;
9005;SDS011;62284;50.702;7.140;2022-09-30T11:42:18;1.05;;;1.05;;
9005;SDS011;62284;50.702;7.140;2022-09-30T11:44:52;1.30;;;1.20;;
9005;SDS011;62284;50.702;7.140;2022-09-30T11:47:30;1.95;;;0.82;;
9005;SDS011;62284;50.702;7.140;2022-09-30T11:50:14;2.33;;;1.30;;
9005;SDS011;62284;50.702;7.140;2022-09-30T11:52:56;1.83;;;1.30;;
9005;SDS011;62284;50.702;7.140;2022-09-30T11:55:34;2.70;;;1.25;;
9005;SDS011;62284;50.702;7.140;2022-09-30T11:58:09;1.20;;;1.08;;
9005;SDS011;62284;50.702;7.140;2022-09-30T12:00:39;1.75;;;1.10;;
9005;SDS011;62284;50.702;7.140;2022-09-30T12:03:10;1.73;;;0.88;;
9005;SDS011;62284;50.702;7.140;2022-09-30T12:05:44;1.98;;;1.00;;
9005;SDS011;62284;50.702;7.140;2022-09-30T12:08:15;1.60;;;1.10;;
9005;SDS011;62284;50.702;7.140;2022-09-30T12:10:48;1.05;;;0.95;;
9005;SDS011;62284;50.702;7.140;2022-09-30T12:13:19;2.42;;;1.40;;
9005;SDS011;62284;50.702;7.140;2022-09-30T12:15:49;1.00;;;0.90;;
9005;SDS011;62284;50.702;7.140;2022-09-30T12:18:20;1.20;;;1.10;;
9005;SDS011;62284;50.702;7.140;2022-09-30T12:20:52;1.88;;;1.08;;
9005;SDS011;62284;50.702;7.140;2022-09-30T12:23:25;1.42;;;1.33;;
9005;SDS011;62284;50.702;7.140;2022-09-30T12:25:56;1.45;;;0.80;;
9005;SDS011;62284;50.702;7.140;2022-09-30T12:28:27;1.90;;;1.10;;
9005;SDS011;62284;50.702;7.140;2022-09-30T12:31:30;0.90;;;0.70;;
9005;SDS011;62284;50.702;7.140;2022-09-30T12:34:10;0.77;;;0.70;;
9005;SDS011;62284;50.702;7.140;2022-09-30T12:36:54;0.95;;;0.80;;
9005;SDS011;62284;50.702;7.140;2022-09-30T12:42:17;1.33;;;0.80;;
9005;SDS011;62284;50.702;7.140;2022-09-30T12:45:28;1.50;;;1.30;;
9005;SDS011;62284;50.702;7.140;2022-09-30T12:48:08;1.48;;;1.40;;
9005;SDS011;62284;50.702;7.140;2022-09-30T12:50:40;0.90;;;0.90;;
9005;SDS011;62284;50.702;7.140;2022-09-30T12:53:15;1.85;;;1.10;;
9005;SDS011;62284;50.702;7.140;2022-09-30T12:55:46;0.75;;;0.73;;
9005;SDS011;62284;50.702;7.140;2022-09-30T12:58:22;0.98;;;0.90;;
9005;SDS011;62284;50.702;7.140;2022-09-30T13:01:00;1.02;;;0.90;;
9005;SDS011;62284;50.702;7.140;2022-09-30T13:03:42;0.93;;;0.88;;
9005;SDS011;62284;50.702;7.140;2022-09-30T13:06:12;1.13;;;0.60;;
9005;SDS011;62284;50.702;7.140;2022-09-30T13:08:41;1.08;;;0.88;;
9005;SDS011;62284;50.702;7.140;2022-09-30T13:11:28;2.85;;;1.55;;
9005;SDS011;62284;50.702;7.140;2022-09-30T13:14:10;1.10;;;0.85;;
9005;SDS011;62284;50.702;7.140;2022-09-30T13:16:59;1.45;;;0.75;;
9005;SDS011;62284;50.702;7.140;2022-09-30T13:19:32;1.02;;;0.77;;
9005;SDS011;62284;50.702;7.140;2022-09-30T13:25:16;1.27;;;0.95;;
9005;SDS011;62284;50.702;7.140;2022-09-30T13:27:44;1.00;;;0.57;;
9005;SDS011;62284;50.702;7.140;2022-09-30T13:30:34;0.70;;;0.70;;
9005;SDS011;62284;50.702;7.140;2022-09-30T13:36:13;1.95;;;0.68;;
9005;SDS011;62284;50.702;7.140;2022-09-30T13:41:27;1.10;;;0.93;;
9005;SDS011;62284;50.702;7.140;2022-09-30T13:43:56;1.75;;;1.35;;
9005;SDS011;62284;50.702;7.140;2022-09-30T13:49:08;1.83;;;1.30;;
9005;SDS011;62284;50.702;7.140;2022-09-30T13:51:40;1.48;;;1.38;;
9005;SDS011;62284;50.702;7.140;2022-09-30T13:54:10;1.38;;;1.27;;
9005;SDS011;62284;50.702;7.140;2022-09-30T13:56:51;1.65;;;1.35;;
9005;SDS011;62284;50.702;7.140;2022-09-30T14:05:30;2.83;;;1.30;;
9005;SDS011;62284;50.702;7.140;2022-09-30T14:11:10;1.75;;;1.40;;
9005;SDS011;62284;50.702;7.140;2022-09-30T14:13:44;1.52;;;1.35;;
9005;SDS011;62284;50.702;7.140;2022-09-30T14:19:31;2.17;;;1.23;;
9005;SDS011;62284;50.702;7.140;2022-09-30T14:22:18;1.55;;;1.10;;
9005;SDS011;62284;50.702;7.140;2022-09-30T14:24:49;0.50;;;0.50;;
9005;SDS011;62284;50.702;7.140;2022-09-30T14:27:20;0.73;;;0.73;;
9005;SDS011;62284;50.702;7.140;2022-09-30T14:30:04;0.82;;;0.60;;
9005;SDS011;62284;50.702;7.140;2022-09-30T14:32:39;1.27;;;0.70;;
9005;SDS011;62284;50.702;7.140;2022-09-30T14:35:12;1.13;;;0.85;;
9005;SDS011;62284;50.702;7.140;2022-09-30T14:37:44;1.30;;;1.05;;
9005;SDS011;62284;50.702;7.140;2022-09-30T14:40:16;0.70;;;0.60;;
9005;SDS011;62284;50.702;7.140;2022-09-30T14:42:44;0.77;;;0.70;;
9005;SDS011;62284;50.702;7.140;2022-09-30T14:45:18;0.75;;;0.70;;
9005;SDS011;62284;50.702;7.140;2022-09-30T14:47:50;0.90;;;0.70;;
9005;SDS011;62284;50.702;7.140;2022-09-30T14:50:20;0.73;;;0.50;;
9005;SDS011;62284;50.702;7.140;2022-09-30T14:52:51;0.60;;;0.60;;
9005;SDS011;62284;50.702;7.140;2022-09-30T14:55:22;0.68;;;0.68;;
9005;SDS011;62284;50.702;7.140;2022-09-30T14:57:52;0.70;;;0.65;;
9005;SDS011;62284;50.702;7.140;2022-09-30T15:00:29;1.00;;;0.80;;
9005;SDS011;62284;50.702;7.140;2022-09-30T15:02:57;0.68;;;0.68;;
9005;SDS011;62284;50.702;7.140;2022-09-30T15:05:24;0.40;;;0.40;;
9005;SDS011;62284;50.702;7.140;2022-09-30T15:07:54;0.73;;;0.50;;
9005;SDS011;62284;50.702;7.140;2022-09-30T15:10:22;1.10;;;1.00;;
9005;SDS011;62284;50.702;7.140;2022-09-30T15:12:50;1.73;;;0.88;;
9005;SDS011;62284;50.702;7.140;2022-09-30T15:15:26;0.75;;;0.75;;
9005;SDS011;62284;50.702;7.140;2022-09-30T15:21:09;0.93;;;0.45;;
9005;SDS011;62284;50.702;7.140;2022-09-30T15:23:40;0.38;;;0.38;;
9005;SDS011;62284;50.702;7.140;2022-09-30T15:26:10;0.80;;;0.60;;
9005;SDS011;62284;50.702;7.140;2022-09-30T15:28:38;0.85;;;0.60;;
9005;SDS011;62284;50.702;7.140;2022-09-30T15:31:05;1.08;;;0.43;;
9005;SDS011;62284;50.702;7.140;2022-09-30T15:33:33;0.40;;;0.40;;
9005;SDS011;62284;50.702;7.140;2022-09-30T15:36:01;1.10;;;0.60;;
9005;SDS011;62284;50.702;7.140;2022-09-30T15:38:31;1.10;;;0.85;;
9005;SDS011;62284;50.702;7.140;2022-09-30T15:41:01;0.63;;;0.50;;
9005;SDS011;62284;50.702;7.140;2022-09-30T15:43:35;0.63;;;0.52;;
9005;SDS011;62284;50.702;7.140;2022-09-30T15:46:14;0.60;;;0.60;;
9005;SDS011;62284;50.702;7.140;2022-09-30T15:49:03;0.60;;;0.60;;
9005;SDS011;62284;50.702;7.140;2022-09-30T15:51:35;0.73;;;0.73;;
9005;SDS011;62284;50.702;7.140;2022-09-30T15:56:58;0.70;;;0.60;;
9005;SDS011;62284;50.702;7.140;2022-09-30T16:02:23;0.50;;;0.50;;
9005;SDS011;62284;50.702;7.140;2022-09-30T16:04:50;0.40;;;0.40;;
9005;SDS011;62284;50.702;7.140;2022-09-30T16:07:18;0.65;;;0.60;;
9005;SDS011;62284;50.702;7.140;2022-09-30T16:09:52;0.68;;;0.60;;